Time;durP1;ratioP1;P1;durP2;ratioP2;P2;SDS_P1;SDS_P2;PMS_P1;PMS_P2;Temp;Humidity;BMP_temperature;BMP_pressure;BME280_temperature;BME280_humidity;BME280_pressure;Samples;Min_cycle;Max_cycle;Signal;HPM_P1;HPM_P2
2023/04/10 00:03:20;;;;;;;27.97;12.23;;;;;2.80;97030.00;;;;8291185;28;20247;-75
2023/04/10 00:07:24;;;;;;;29.73;13.13;;;;;2.70;97029.00;;;;8297292;28;20213;-74
2023/04/10 00:11:29;;;;;;;32.47;13.60;;;;;2.70;97027.00;;;;8290775;28;20823;-74
2023/04/10 00:15:32;;;;;;;33.57;14.47;;;;;2.60;97033.00;;;;8289369;28;20229;-76
2023/04/10 00:19:35;;;;;;;29.03;13.30;;;;;2.60;97021.00;;;;8306990;28;20214;-73
2023/04/10 00:23:40;;;;;;;34.73;15.80;;;;;2.60;97022.00;;;;8291967;28;20204;-76
2023/04/10 00:27:45;;;;;;;38.73;16.00;;;;;2.60;97018.00;;;;8284336;28;20202;-75
2023/04/10 00:31:49;;;;;;;31.33;15.17;;;;;2.70;97014.00;;;;8294321;28;20211;-75
2023/04/10 00:35:57;;;;;;;40.27;16.17;;;;;2.80;97008.00;;;;8291746;28;20234;-76
2023/04/10 00:40:03;;;;;;;32.10;15.17;;;;;2.90;96999.00;;;;8301491;28;20194;-75
2023/04/10 00:44:11;;;;;;;40.63;16.23;;;;;3.10;97005.00;;;;8292096;28;20894;-78
2023/04/10 00:48:15;;;;;;;36.83;16.13;;;;;3.20;97000.00;;;;8293900;28;20288;-74
2023/04/10 00:52:20;;;;;;;36.80;15.40;;;;;3.30;96998.00;;;;8289909;28;20680;-73
2023/04/10 00:56:26;;;;;;;36.07;15.47;;;;;3.50;96997.00;;;;8285363;28;20227;-73
2023/04/10 01:00:35;;;;;;;31.50;14.27;;;;;3.50;97001.00;;;;8273005;28;20200;-75
2023/04/10 01:04:39;;;;;;;34.67;15.07;;;;;3.60;97005.00;;;;8287436;28;20977;-76
2023/04/10 01:08:50;;;;;;;33.80;14.80;;;;;3.70;96989.00;;;;8293115;28;20272;-78
2023/04/10 01:13:04;;;;;;;33.97;14.97;;;;;3.70;96975.00;;;;8285582;28;20383;-75
2023/04/10 01:17:13;;;;;;;29.73;13.47;;;;;3.70;96967.00;;;;8286306;28;20223;-76
2023/04/10 01:21:20;;;;;;;29.83;13.93;;;;;3.60;96966.00;;;;8296247;28;20202;-73
2023/04/10 01:25:41;;;;;;;28.33;13.27;;;;;3.40;96973.00;;;;8289634;28;20230;-74
2023/04/10 01:29:50;;;;;;;30.77;14.03;;;;;3.20;96966.00;;;;8292560;28;20650;-74
2023/04/10 01:34:07;;;;;;;31.77;14.73;;;;;3.00;96959.00;;;;8283879;28;20214;-74
2023/04/10 01:38:13;;;;;;;29.63;12.87;;;;;2.80;96971.00;;;;8296656;28;20196;-74
2023/04/10 01:42:25;;;;;;;31.07;13.77;;;;;2.60;96963.00;;;;8295926;28;20702;-74
2023/04/10 01:46:33;;;;;;;24.93;12.00;;;;;2.50;96970.00;;;;8291663;28;20386;-74
2023/04/10 01:50:45;;;;;;;24.67;11.73;;;;;2.40;96964.00;;;;8298113;28;20317;-75
2023/04/10 01:54:51;;;;;;;28.40;13.07;;;;;2.30;96969.00;;;;8297970;28;20229;-75
2023/04/10 01:58:55;;;;;;;25.00;11.43;;;;;2.20;96961.00;;;;8298976;28;20205;-74
2023/04/10 02:03:04;;;;;;;30.87;13.50;;;;;2.20;96953.00;;;;8280260;28;20241;-76
2023/04/10 02:07:14;;;;;;;27.90;13.07;;;;;2.10;96950.00;;;;8290385;28;20652;-77
2023/04/10 02:11:24;;;;;;;31.93;13.17;;;;;2.10;96945.00;;;;8296773;28;20198;-75
2023/04/10 02:15:32;;;;;;;26.10;11.53;;;;;2.10;96939.00;;;;8295164;28;20742;-75
2023/04/10 02:19:38;;;;;;;27.60;12.10;;;;;2.10;96939.00;;;;8307240;28;20240;-77
2023/04/10 02:23:41;;;;;;;31.20;12.87;;;;;2.00;96937.00;;;;8303743;28;20293;-76
2023/04/10 02:27:48;;;;;;;32.83;12.17;;;;;2.00;96938.00;;;;8288683;28;20653;-75
2023/04/10 02:31:50;;;;;;;28.93;13.43;;;;;1.90;96940.00;;;;8286497;28;20202;-76
2023/04/10 02:35:55;;;;;;;23.80;11.47;;;;;1.80;96948.00;;;;8272685;28;20226;-75
2023/04/10 02:40:03;;;;;;;26.53;12.07;;;;;1.70;96949.00;;;;8299727;28;20253;-76
2023/04/10 02:44:13;;;;;;;27.03;11.83;;;;;1.60;96939.00;;;;8290304;28;20199;-76
2023/04/10 02:48:18;;;;;;;31.93;13.07;;;;;1.40;96950.00;;;;8293681;28;20205;-77
2023/04/10 02:52:23;;;;;;;32.70;14.07;;;;;1.40;96948.00;;;;8286123;28;20198;-76
2023/04/10 02:56:28;;;;;;;29.10;12.13;;;;;1.40;96952.00;;;;8287517;28;20318;-77
2023/04/10 03:00:36;;;;;;;28.73;13.30;;;;;1.50;96947.00;;;;8282853;28;20192;-76
2023/04/10 03:04:40;;;;;;;32.67;13.57;;;;;1.40;96949.00;;;;8403880;22;20712;-78
2023/04/10 03:08:44;;;;;;;28.93;13.40;;;;;1.40;96949.00;;;;8383789;28;20204;-77
2023/04/10 03:12:52;;;;;;;28.50;13.03;;;;;1.50;96953.00;;;;8384147;28;20208;-77
2023/04/10 03:16:58;;;;;;;32.07;12.87;;;;;1.50;96947.00;;;;8381519;28;20219;-77
2023/04/10 03:21:01;;;;;;;28.30;12.33;;;;;1.40;96950.00;;;;8383778;28;20209;-77
2023/04/10 03:25:06;;;;;;;32.07;13.17;;;;;1.40;96952.00;;;;8381742;28;20205;-77
2023/04/10 03:29:14;;;;;;;27.57;13.17;;;;;1.30;96947.00;;;;8360718;28;20204;-77
2023/04/10 03:33:17;;;;;;;35.50;14.80;;;;;1.30;96949.00;;;;8381786;28;20227;-77
2023/04/10 03:37:20;;;;;;;32.77;13.60;;;;;1.20;96954.00;;;;8380960;28;20292;-77
2023/04/10 03:41:25;;;;;;;34.07;14.30;;;;;1.30;96957.00;;;;8383760;28;20207;-77
2023/04/10 03:45:28;;;;;;;34.93;12.67;;;;;1.20;96957.00;;;;8378293;28;20670;-75
2023/04/10 03:49:31;;;;;;;26.80;12.23;;;;;1.20;96963.00;;;;8386417;28;20226;-77
2023/04/10 03:53:36;;;;;;;29.23;13.53;;;;;1.20;96972.00;;;;8376669;28;20253;-76
2023/04/10 03:57:42;;;;;;;28.07;12.30;;;;;1.20;96965.00;;;;8379140;28;20651;-76
2023/04/10 04:01:46;;;;;;;33.43;12.73;;;;;1.20;96964.00;;;;8375051;28;20816;-76
2023/04/10 04:05:49;;;;;;;27.90;12.23;;;;;1.20;96960.00;;;;8361821;28;20241;-77
2023/04/10 04:09:55;;;;;;;27.67;12.20;;;;;1.10;96959.00;;;;8364960;28;20216;-76
2023/04/10 04:14:01;;;;;;;26.90;12.10;;;;;0.90;96954.00;;;;8354215;28;20235;-77
2023/04/10 04:18:07;;;;;;;27.33;12.90;;;;;0.90;96953.00;;;;8368848;28;20201;-78
2023/04/10 04:22:11;;;;;;;31.43;12.83;;;;;0.90;96955.00;;;;8376129;28;20200;-76
2023/04/10 04:26:14;;;;;;;37.00;13.43;;;;;0.90;96968.00;;;;8380865;28;20204;-77
2023/04/10 04:30:18;;;;;;;31.53;12.60;;;;;1.00;96960.00;;;;8382104;28;20688;-76
2023/04/10 04:34:21;;;;;;;28.23;11.97;;;;;1.00;96976.00;;;;8384230;28;20272;-76
2023/04/10 04:38:25;;;;;;;34.47;12.00;;;;;1.10;96978.00;;;;8380802;28;20250;-75
2023/04/10 04:42:31;;;;;;;24.50;11.63;;;;;1.10;96982.00;;;;8379386;28;20228;-76
2023/04/10 04:46:37;;;;;;;27.90;12.60;;;;;1.10;96989.00;;;;8384912;28;20676;-76
2023/04/10 04:50:41;;;;;;;26.63;12.03;;;;;1.10;96990.00;;;;8382336;28;20227;-74
2023/04/10 04:54:46;;;;;;;30.73;12.33;;;;;1.10;96992.00;;;;8380728;28;20227;-75
2023/04/10 04:58:50;;;;;;;29.10;12.40;;;;;1.20;96993.00;;;;8374559;28;20198;-75
2023/04/10 05:02:55;;;;;;;28.63;12.63;;;;;1.30;97005.00;;;;8372562;28;20338;-75
2023/04/10 05:07:00;;;;;;;29.77;13.13;;;;;1.40;97001.00;;;;8376932;28;20199;-74
2023/04/10 05:11:05;;;;;;;33.03;12.43;;;;;1.50;97002.00;;;;8354357;28;20692;-74
2023/04/10 05:15:08;;;;;;;29.70;11.93;;;;;1.60;96997.00;;;;8385399;28;20227;-73
2023/04/10 05:19:13;;;;;;;28.40;12.63;;;;;1.70;97010.00;;;;8381115;28;20208;-73
2023/04/10 05:23:16;;;;;;;27.70;12.87;;;;;1.80;97000.00;;;;8380062;28;20207;-73
2023/04/10 05:27:21;;;;;;;26.43;11.90;;;;;1.90;96997.00;;;;8382564;28;20211;-73
2023/04/10 05:31:24;;;;;;;26.20;11.53;;;;;2.00;97002.00;;;;8380678;28;20204;-74
2023/04/10 05:35:30;;;;;;;27.73;11.77;;;;;2.00;97008.00;;;;8370373;28;20929;-75
2023/04/10 05:39:36;;;;;;;24.30;11.73;;;;;2.20;97010.00;;;;8371052;28;20281;-74
2023/04/10 05:43:39;;;;;;;23.70;11.73;;;;;2.30;97011.00;;;;8374601;28;20283;-72
2023/04/10 05:47:44;;;;;;;25.73;13.03;;;;;2.40;97012.00;;;;8356166;28;20201;-72
2023/04/10 05:51:51;;;;;;;29.93;14.10;;;;;2.50;97019.00;;;;8376989;28;20200;-72
2023/04/10 05:55:55;;;;;;;22.47;11.80;;;;;2.70;97019.00;;;;8367735;28;20234;-71
2023/04/10 05:59:59;;;;;;;28.57;13.37;;;;;2.80;97015.00;;;;8367287;28;20664;-72
2023/04/10 06:04:04;;;;;;;29.80;12.67;;;;;3.00;97022.00;;;;8354370;28;20238;-74
2023/04/10 06:08:08;;;;;;;28.27;13.70;;;;;3.10;97028.00;;;;8365501;28;20199;-73
2023/04/10 06:12:12;;;;;;;29.00;13.00;;;;;3.30;97019.00;;;;8365841;28;20196;-75
2023/04/10 06:16:17;;;;;;;24.33;12.23;;;;;3.50;97010.00;;;;8366014;28;20257;-75
2023/04/10 06:20:20;;;;;;;29.37;13.80;;;;;3.70;97011.00;;;;8368976;28;20205;-76
2023/04/10 06:24:24;;;;;;;34.13;14.67;;;;;3.90;97012.00;;;;8346726;28;20213;-74
2023/04/10 06:28:28;;;;;;;27.97;13.43;;;;;4.00;97013.00;;;;8360310;28;20737;-74
2023/04/10 06:32:31;;;;;;;27.70;13.47;;;;;4.20;97009.00;;;;8360863;28;20527;-78
2023/04/10 06:36:34;;;;;;;28.43;13.93;;;;;4.50;97001.00;;;;8360717;28;20235;-76
2023/04/10 06:40:43;;;;;;;29.00;14.03;;;;;4.80;96989.00;;;;8356289;28;20207;-75
2023/04/10 06:44:48;;;;;;;31.13;14.77;;;;;5.00;96993.00;;;;8361293;28;20243;-75
2023/04/10 06:48:51;;;;;;;38.10;16.97;;;;;5.30;96996.00;;;;8381035;28;20852;-75
2023/04/10 06:52:58;;;;;;;44.97;19.60;;;;;5.70;96988.00;;;;8378893;28;20222;-78
2023/04/10 06:57:04;;;;;;;38.97;18.27;;;;;6.20;96993.00;;;;8378765;28;20242;-78
2023/04/10 07:01:07;;;;;;;39.27;19.27;;;;;6.70;96999.00;;;;8384163;28;20218;-77
2023/04/10 07:05:10;;;;;;;37.47;18.53;;;;;7.10;97005.00;;;;8380043;28;20235;-74
2023/04/10 07:09:16;;;;;;;37.87;18.30;;;;;7.50;97004.00;;;;8380829;28;20200;-74
2023/04/10 07:13:20;;;;;;;39.73;18.30;;;;;7.80;96999.00;;;;8374766;28;20219;-74
2023/04/10 07:17:26;;;;;;;35.30;17.13;;;;;8.10;97015.00;;;;8373875;28;20223;-73
2023/04/10 07:21:34;;;;;;;35.57;17.87;;;;;8.40;97013.00;;;;8373737;28;20236;-72
2023/04/10 07:25:37;;;;;;;34.03;17.03;;;;;8.80;97010.00;;;;8368459;28;22022;-72
2023/04/10 07:29:42;;;;;;;32.53;16.43;;;;;9.20;97011.00;;;;8371975;28;20736;-72
2023/04/10 07:33:48;;;;;;;31.13;16.50;;;;;9.70;97017.00;;;;8369881;28;20225;-72
2023/04/10 07:37:53;;;;;;;33.80;16.20;;;;;10.10;97020.00;;;;8370627;28;20240;-70
2023/04/10 07:41:58;;;;;;;29.67;16.10;;;;;10.60;97016.00;;;;8367453;28;20231;-74
2023/04/10 07:46:02;;;;;;;28.13;15.50;;;;;10.90;97034.00;;;;8370843;28;20232;-69
2023/04/10 07:50:13;;;;;;;30.10;16.53;;;;;11.30;97026.00;;;;8374880;28;20192;-70
2023/04/10 07:54:18;;;;;;;27.50;16.53;;;;;11.90;97031.00;;;;8366927;28;20208;-72
2023/04/10 07:58:21;;;;;;;28.13;15.93;;;;;12.80;97031.00;;;;8364365;28;20227;-76
2023/04/10 08:02:25;;;;;;;27.80;15.50;;;;;13.60;97021.00;;;;8376185;28;20231;-72
2023/04/10 08:06:28;;;;;;;30.35;15.93;;;;;14.30;97027.00;;;;8375630;28;20296;-73
2023/04/10 08:10:32;;;;;;;26.73;16.08;;;;;15.00;97018.00;;;;8357341;28;20814;-72
2023/04/10 08:14:38;;;;;;;25.73;14.38;;;;;15.50;97016.00;;;;8380119;28;20208;-75
2023/04/10 08:18:44;;;;;;;24.65;14.73;;;;;15.70;97018.00;;;;8379315;28;20232;-74
2023/04/10 08:22:47;;;;;;;22.52;14.35;;;;;16.00;97013.00;;;;8369426;28;20239;-75
2023/04/10 08:26:58;;;;;;;23.83;14.85;;;;;16.20;97014.00;;;;8363559;28;20207;-73
2023/04/10 08:31:03;;;;;;;27.95;14.70;;;;;16.50;97019.00;;;;8370889;28;20203;-72
2023/04/10 08:35:09;;;;;;;24.13;12.88;;;;;16.60;97013.00;;;;8371831;28;20556;-75
2023/04/10 08:39:14;;;;;;;22.70;13.30;;;;;16.70;97022.00;;;;8373213;28;20227;-79
2023/04/10 08:43:17;;;;;;;24.15;13.75;;;;;17.00;97024.00;;;;8365043;28;20187;-79
2023/04/10 08:47:21;;;;;;;20.27;12.95;;;;;17.10;97021.00;;;;8368209;28;20205;-74
2023/04/10 08:51:34;;;;;;;22.08;13.40;;;;;17.20;97013.00;;;;8375787;28;20214;-73
2023/04/10 08:55:41;;;;;;;22.75;12.60;;;;;17.00;97015.00;;;;8385323;28;20232;-80
2023/04/10 08:59:46;;;;;;;19.52;11.50;;;;;17.10;97012.00;;;;8387025;28;20200;-76
2023/04/10 09:03:50;;;;;;;20.27;12.85;;;;;16.90;97014.00;;;;8383465;28;20311;-71
2023/04/10 09:07:57;;;;;;;21.45;12.63;;;;;17.10;97008.00;;;;8384899;28;20282;-77
2023/04/10 09:12:02;;;;;;;21.60;12.50;;;;;17.50;97007.00;;;;8384097;28;20188;-74
2023/04/10 09:16:06;;;;;;;19.92;11.68;;;;;17.80;97009.00;;;;8383425;28;20320;-75
2023/04/10 09:20:21;;;;;;;18.35;11.75;;;;;18.00;97007.00;;;;8382347;28;20577;-75
2023/04/10 09:24:27;;;;;;;21.65;13.07;;;;;18.10;97009.00;;;;8374456;28;20713;-74
2023/04/10 09:28:31;;;;;;;16.75;11.20;;;;;18.00;97004.00;;;;8383950;28;20220;-73
2023/04/10 09:32:39;;;;;;;17.25;11.68;;;;;18.20;97002.00;;;;8365734;28;20247;-74
2023/04/10 09:36:53;;;;;;;16.98;11.70;;;;;18.70;97004.00;;;;8379509;28;20264;-74
2023/04/10 09:41:07;;;;;;;17.33;11.75;;;;;19.10;96996.00;;;;8377445;28;20222;-75
2023/04/10 09:45:12;;;;;;;17.33;11.90;;;;;19.40;96981.00;;;;8381950;28;20197;-74
2023/04/10 09:49:16;;;;;;;17.27;11.75;;;;;19.40;96999.00;;;;8377093;28;20589;-79
2023/04/10 09:53:22;;;;;;;19.00;11.93;;;;;19.60;96990.00;;;;8386595;28;20279;-75
2023/04/10 09:57:30;;;;;;;19.48;11.10;;;;;19.70;96978.00;;;;8383441;28;20223;-75
2023/04/10 10:01:34;;;;;;;16.10;11.07;;;;;19.80;96976.00;;;;8385293;28;20244;-75
2023/04/10 10:05:45;;;;;;;17.50;11.60;;;;;19.90;96978.00;;;;8380450;28;20614;-74
2023/04/10 10:09:51;;;;;;;17.23;10.98;;;;;20.10;96972.00;;;;8382868;28;20212;-72
2023/04/10 10:14:00;;;;;;;16.25;10.35;;;;;19.40;96958.00;;;;8375962;28;20965;-73
2023/04/10 10:18:13;;;;;;;16.45;10.65;;;;;19.00;96961.00;;;;8377292;28;21006;-72
2023/04/10 10:22:16;;;;;;;13.32;9.27;;;;;18.70;96952.00;;;;8379645;28;20890;-71
2023/04/10 10:26:20;;;;;;;13.13;9.02;;;;;18.50;96939.00;;;;8373036;28;20669;-72
2023/04/10 10:30:27;;;;;;;13.98;9.00;;;;;18.00;96934.00;;;;8374563;28;20196;-71
2023/04/10 10:34:33;;;;;;;13.07;9.02;;;;;18.30;96933.00;;;;8376307;28;20818;-73
2023/04/10 10:38:42;;;;;;;14.20;9.38;;;;;18.20;96926.00;;;;8374286;28;20281;-74
2023/04/10 10:42:54;;;;;;;12.32;8.75;;;;;18.80;96913.00;;;;8375717;28;20578;-73
2023/04/10 10:47:08;;;;;;;14.80;9.20;;;;;19.10;96914.00;;;;8363173;28;20227;-71
2023/04/10 10:51:11;;;;;;;12.25;8.40;;;;;19.50;96907.00;;;;8361349;28;20207;-71
2023/04/10 10:55:36;;;;;;;12.70;9.30;;;;;19.00;96911.00;;;;8381255;28;20211;-73
2023/04/10 10:59:59;;;;;;;32.22;19.92;;;;;19.30;96894.00;;;;8363575;28;20265;-75
2023/04/10 11:04:42;;;;;;;19.90;13.45;;;;;19.30;96889.00;;;;8347420;28;20328;-70
2023/04/10 11:08:47;;;;;;;13.35;9.38;;;;;19.40;96884.00;;;;8375429;28;20255;-74
2023/04/10 11:13:17;;;;;;;11.32;8.48;;;;;19.50;96878.00;;;;8375237;28;20228;-73
2023/04/10 11:17:47;;;;;;;10.68;7.82;;;;;19.90;96879.00;;;;8371551;28;20235;-73
2023/04/10 11:22:09;;;;;;;10.30;7.63;;;;;20.20;96868.00;;;;8370102;28;20204;-72
2023/04/10 11:26:14;;;;;;;12.55;9.18;;;;;20.00;96869.00;;;;8369516;28;20761;-75
2023/04/10 11:30:26;;;;;;;10.52;7.97;;;;;20.10;96874.00;;;;8368648;28;20657;-75
2023/04/10 11:34:32;;;;;;;13.68;7.72;;;;;20.40;96863.00;;;;8373945;28;20252;-73
2023/04/10 11:38:39;;;;;;;13.02;8.65;;;;;20.50;96865.00;;;;8368556;28;20690;-73
2023/04/10 11:42:43;;;;;;;13.15;9.25;;;;;20.20;96859.00;;;;8379051;28;20215;-73
2023/04/10 11:46:46;;;;;;;13.32;8.95;;;;;20.10;96864.00;;;;8386633;28;20204;-75
2023/04/10 11:50:49;;;;;;;14.05;9.13;;;;;19.80;96850.00;;;;8383006;28;20207;-82
2023/04/10 11:54:53;;;;;;;14.05;9.95;;;;;19.70;96858.00;;;;8382938;28;20203;-73
2023/04/10 11:58:56;;;;;;;13.95;9.65;;;;;19.50;96845.00;;;;8379104;28;20227;-74
2023/04/10 12:03:03;;;;;;;11.82;8.45;;;;;19.30;96836.00;;;;8384463;28;20223;-75
2023/04/10 12:07:09;;;;;;;12.15;8.63;;;;;19.20;96827.00;;;;8385400;28;20192;-76
2023/04/10 12:11:23;;;;;;;12.20;8.98;;;;;19.20;96828.00;;;;8374920;28;20223;-75
2023/04/10 12:15:30;;;;;;;12.48;8.68;;;;;18.90;96828.00;;;;8378844;28;20203;-83
2023/04/10 12:19:35;;;;;;;11.18;8.18;;;;;19.00;96828.00;;;;8380641;28;20228;-76
2023/04/10 12:23:42;;;;;;;11.07;7.65;;;;;18.80;96829.00;;;;8380893;28;20206;-77
2023/04/10 12:27:53;;;;;;;11.80;8.48;;;;;18.40;96824.00;;;;8380849;28;20208;-75
2023/04/10 12:31:58;;;;;;;11.82;7.95;;;;;18.10;96834.00;;;;8383895;28;20291;-72
2023/04/10 12:36:01;;;;;;;11.68;8.55;;;;;18.00;96820.00;;;;8378374;28;20251;-74
2023/04/10 12:40:08;;;;;;;11.45;7.90;;;;;17.90;96818.00;;;;8380004;28;20285;-78
2023/04/10 12:44:13;;;;;;;11.55;8.30;;;;;17.80;96804.00;;;;8385412;28;20203;-76
2023/04/10 12:48:23;;;;;;;10.02;7.40;;;;;17.60;96795.00;;;;8365727;28;20231;-78
2023/04/10 12:52:25;;;;;;;10.02;6.93;;;;;17.50;96794.00;;;;8391004;28;20197;-73
2023/04/10 12:56:42;;;;;;;12.70;7.55;;;;;17.40;96789.00;;;;8386891;28;20266;-74
2023/04/10 13:00:49;;;;;;;11.52;7.65;;;;;17.30;96772.00;;;;8381486;28;20200;-77
2023/04/10 13:04:54;;;;;;;9.73;6.82;;;;;17.30;96772.00;;;;8382516;28;20235;-77
2023/04/10 13:08:57;;;;;;;9.23;7.00;;;;;17.30;96775.00;;;;8384303;28;20590;-77
2023/04/10 13:13:05;;;;;;;10.70;7.35;;;;;17.30;96764.00;;;;8376506;28;20204;-73
2023/04/10 13:17:11;;;;;;;11.90;7.30;;;;;17.10;96761.00;;;;8386890;28;20547;-76
2023/04/10 13:21:21;;;;;;;11.32;7.85;;;;;17.20;96758.00;;;;8387929;28;20211;-73
2023/04/10 13:25:26;;;;;;;12.93;7.43;;;;;17.30;96764.00;;;;8385899;28;20211;-76
2023/04/10 13:29:31;;;;;;;10.02;7.10;;;;;17.30;96754.00;;;;8381226;28;20201;-74
2023/04/10 13:33:35;;;;;;;10.25;7.07;;;;;17.50;96736.00;;;;8383642;28;20200;-73
2023/04/10 13:37:41;;;;;;;8.63;6.53;;;;;17.80;96721.00;;;;8380998;28;20830;-76
2023/04/10 13:41:45;;;;;;;11.02;7.60;;;;;17.90;96720.00;;;;8386055;28;20203;-75
2023/04/10 13:45:48;;;;;;;9.95;7.00;;;;;18.10;96718.00;;;;8380763;28;20207;-76
2023/04/10 13:49:56;;;;;;;10.48;7.05;;;;;18.60;96711.00;;;;8384676;28;20196;-72
2023/04/10 13:53:59;;;;;;;8.93;6.70;;;;;18.60;96701.00;;;;8363664;28;20216;-75
2023/04/10 13:58:05;;;;;;;8.55;6.60;;;;;18.70;96693.00;;;;8367883;28;20219;-74
2023/04/10 14:02:09;;;;;;;10.32;7.10;;;;;19.30;96685.00;;;;8383810;28;20270;-75
2023/04/10 14:06:14;;;;;;;7.70;6.07;;;;;19.60;96691.00;;;;8378360;28;20188;-74
2023/04/10 14:10:19;;;;;;;7.78;5.78;;;;;20.00;96690.00;;;;8380183;28;20672;-72
2023/04/10 14:14:22;;;;;;;8.32;6.22;;;;;20.10;96688.00;;;;8381412;28;20188;-72
2023/04/10 14:18:27;;;;;;;7.03;5.60;;;;;20.10;96678.00;;;;8377998;28;20626;-74
2023/04/10 14:22:34;;;;;;;8.35;6.38;;;;;20.20;96669.00;;;;8384382;28;20199;-71
2023/04/10 14:26:40;;;;;;;7.18;5.40;;;;;20.40;96665.00;;;;8379940;28;20425;-74
2023/04/10 14:30:55;;;;;;;6.72;5.35;;;;;20.20;96656.00;;;;8385438;28;20207;-77
2023/04/10 14:35:02;;;;;;;7.20;5.20;;;;;20.50;96645.00;;;;8379008;28;20196;-75
2023/04/10 14:39:07;;;;;;;7.38;5.03;;;;;20.70;96646.00;;;;8373319;28;20232;-79
2023/04/10 14:43:12;;;;;;;7.18;5.60;;;;;20.60;96637.00;;;;8384362;28;20204;-75
2023/04/10 14:47:19;;;;;;;7.45;6.13;;;;;20.60;96641.00;;;;8381614;28;20949;-75
2023/04/10 14:51:25;;;;;;;6.18;5.05;;;;;20.30;96643.00;;;;8382296;28;20246;-73
2023/04/10 14:55:30;;;;;;;6.95;5.43;;;;;20.10;96640.00;;;;8382921;28;20235;-75
2023/04/10 14:59:32;;;;;;;6.72;5.60;;;;;19.80;96632.00;;;;8374758;28;20797;-74
2023/04/10 15:03:35;;;;;;;6.22;5.43;;;;;19.50;96624.00;;;;8363270;28;20235;-77
2023/04/10 15:07:43;;;;;;;7.85;6.25;;;;;19.50;96622.00;;;;8379037;28;20200;-72
2023/04/10 15:11:47;;;;;;;6.57;5.55;;;;;19.50;96604.00;;;;8380094;28;20311;-76
2023/04/10 15:15:53;;;;;;;6.00;5.13;;;;;19.60;96603.00;;;;8379784;28;20203;-75
2023/04/10 15:20:00;;;;;;;5.10;4.53;;;;;19.70;96598.00;;;;8383270;28;20227;-76
2023/04/10 15:24:03;;;;;;;6.28;5.03;;;;;19.70;96598.00;;;;8365018;28;20212;-74
2023/04/10 15:28:08;;;;;;;4.72;4.25;;;;;19.70;96589.00;;;;8377148;28;20781;-72
2023/04/10 15:32:14;;;;;;;4.43;4.03;;;;;19.60;96594.00;;;;8372996;28;20222;-78
2023/04/10 15:36:17;;;;;;;5.82;4.80;;;;;19.50;96585.00;;;;8370177;28;20192;-76
2023/04/10 15:40:20;;;;;;;5.90;4.60;;;;;19.40;96579.00;;;;8373464;28;20259;-71
2023/04/10 15:44:24;;;;;;;6.93;4.82;;;;;19.30;96586.00;;;;8381812;28;20231;-73
2023/04/10 15:48:27;;;;;;;10.75;8.13;;;;;19.10;96573.00;;;;8381299;28;20215;-71
2023/04/10 15:52:32;;;;;;;13.15;8.80;;;;;18.90;96557.00;;;;8373529;28;20207;-76
2023/04/10 15:56:37;;;;;;;12.23;7.97;;;;;18.80;96572.00;;;;8377615;28;20208;-73
2023/04/10 16:00:47;;;;;;;6.45;5.60;;;;;18.70;96570.00;;;;8379517;28;20227;-72
2023/04/10 16:04:50;;;;;;;8.18;6.10;;;;;18.50;96561.00;;;;8378838;28;20227;-72
2023/04/10 16:08:53;;;;;;;5.93;4.93;;;;;18.50;96557.00;;;;8380649;28;20200;-72
2023/04/10 16:13:02;;;;;;;5.97;5.03;;;;;18.30;96552.00;;;;8378738;28;20847;-72
2023/04/10 16:17:09;;;;;;;7.25;5.22;;;;;18.10;96559.00;;;;8380674;28;20305;-77
2023/04/10 16:21:13;;;;;;;6.20;5.00;;;;;17.80;96552.00;;;;8377297;28;20256;-71
2023/04/10 16:25:20;;;;;;;5.95;4.85;;;;;17.50;96542.00;;;;8364707;28;20649;-73
2023/04/10 16:29:23;;;;;;;5.45;4.50;;;;;17.10;96533.00;;;;8384610;28;20207;-71
2023/04/10 16:33:35;;;;;;;6.53;4.90;;;;;16.80;96528.00;;;;8380629;28;20207;-76
2023/04/10 16:37:48;;;;;;;6.05;4.88;;;;;16.50;96524.00;;;;8381623;28;20198;-73
2023/04/10 16:41:53;;;;;;;6.32;4.60;;;;;16.30;96526.00;;;;8384496;28;20224;-74
2023/04/10 16:45:56;;;;;;;6.22;4.30;;;;;16.10;96518.00;;;;8382662;28;20232;-76
2023/04/10 16:50:11;;;;;;;44.40;26.08;;;;;15.90;96515.00;;;;8388941;28;20218;-77
2023/04/10 16:54:17;;;;;;;13.55;9.88;;;;;15.80;96513.00;;;;8383665;28;20209;-73
2023/04/10 16:58:23;;;;;;;6.78;6.07;;;;;15.60;96509.00;;;;8389307;28;20235;-74
2023/04/10 17:02:28;;;;;;;6.93;5.95;;;;;15.40;96509.00;;;;8383260;28;20247;-71
2023/04/10 17:06:36;;;;;;;11.75;10.65;;;;;15.20;96515.00;;;;8385705;28;20204;-77
2023/04/10 17:10:39;;;;;;;6.75;6.03;;;;;15.00;96507.00;;;;8387188;28;20214;-75
2023/04/10 17:14:45;;;;;;;8.07;5.22;;;;;14.70;96508.00;;;;8382646;28;20235;-74
2023/04/10 17:18:48;;;;;;;17.65;15.95;;;;;14.50;96502.00;;;;8383297;28;20242;-75
2023/04/10 17:22:52;;;;;;;7.38;6.03;;;;;14.30;96495.00;;;;8408617;28;20203;-76
2023/04/10 17:26:59;;;;;;;7.90;5.63;;;;;14.10;96496.00;;;;8384634;28;20291;-75
2023/04/10 17:31:05;;;;;;;28.77;16.83;;;;;13.90;96475.00;;;;8389578;28;20205;-74
2023/04/10 17:35:11;;;;;;;19.55;17.52;;;;;13.70;96468.00;;;;8389340;28;21624;-78
2023/04/10 17:39:15;;;;;;;8.25;6.18;;;;;13.50;96462.00;;;;8388460;28;20629;-69
2023/04/10 17:43:19;;;;;;;6.50;5.55;;;;;13.30;96464.00;;;;8397901;28;20203;-69
2023/04/10 17:47:34;;;;;;;6.07;4.88;;;;;13.20;96456.00;;;;8388595;28;20242;-71
2023/04/10 17:51:42;;;;;;;6.28;5.03;;;;;13.00;96451.00;;;;8372545;28;20227;-72
2023/04/10 17:55:47;;;;;;;5.20;4.25;;;;;12.90;96448.00;;;;8396941;28;20207;-70
2023/04/10 17:59:49;;;;;;;5.20;4.43;;;;;12.80;96445.00;;;;8385312;28;20231;-74
2023/04/10 18:03:56;;;;;;;6.18;4.32;;;;;12.60;96446.00;;;;8394976;28;20358;-72
2023/04/10 18:08:00;;;;;;;7.07;4.63;;;;;12.50;96451.00;;;;8393856;28;20199;-72
2023/04/10 18:12:05;;;;;;;5.93;4.45;;;;;12.40;96447.00;;;;8385225;28;20199;-69
2023/04/10 18:16:09;;;;;;;8.27;4.78;;;;;12.30;96446.00;;;;8391926;28;20206;-70
2023/04/10 18:20:13;;;;;;;5.35;4.30;;;;;12.30;96433.00;;;;8386238;28;20237;-73
2023/04/10 18:24:18;;;;;;;5.70;4.50;;;;;12.20;96433.00;;;;8389123;28;20750;-71
2023/04/10 18:28:23;;;;;;;7.60;5.53;;;;;12.10;96433.00;;;;8386246;28;20205;-69
2023/04/10 18:32:28;;;;;;;9.95;4.90;;;;;12.10;96442.00;;;;8380358;28;20210;-74
2023/04/10 18:36:35;;;;;;;8.82;6.18;;;;;12.00;96431.00;;;;8383354;28;20324;-72
2023/04/10 18:40:38;;;;;;;6.85;4.82;;;;;11.90;96419.00;;;;8374637;28;20249;-73
2023/04/10 18:44:42;;;;;;;7.43;4.90;;;;;11.90;96425.00;;;;8370888;28;20204;-72
2023/04/10 18:48:49;;;;;;;6.95;4.63;;;;;11.80;96418.00;;;;8369206;28;20215;-72
2023/04/10 18:52:52;;;;;;;5.05;4.10;;;;;11.70;96421.00;;;;8386959;28;20203;-73
2023/04/10 18:56:56;;;;;;;6.90;4.78;;;;;11.70;96421.00;;;;8382408;28;20640;-72
2023/04/10 19:01:00;;;;;;;7.28;5.03;;;;;11.60;96422.00;;;;8384400;28;20243;-70
2023/04/10 19:05:15;;;;;;;6.88;4.63;;;;;11.50;96429.00;;;;8395612;28;20717;-71
2023/04/10 19:09:18;;;;;;;7.22;4.68;;;;;11.40;96410.00;;;;8384488;28;20205;-70
2023/04/10 19:13:24;;;;;;;7.35;5.35;;;;;11.30;96410.00;;;;8397001;28;20195;-70
2023/04/10 19:17:29;;;;;;;17.85;7.78;;;;;11.10;96396.00;;;;8377235;28;20205;-70
2023/04/10 19:21:33;;;;;;;23.20;9.48;;;;;11.00;96381.00;;;;8389752;28;20235;-71
2023/04/10 19:25:36;;;;;;;46.03;13.90;;;;;10.90;96377.00;;;;8383689;28;20241;-71
2023/04/10 19:29:39;;;;;;;50.80;15.40;;;;;10.80;96376.00;;;;8359243;28;20239;-70
2023/04/10 19:33:45;;;;;;;23.13;8.70;;;;;10.70;96368.00;;;;8384696;28;20952;-70
2023/04/10 19:37:49;;;;;;;18.60;9.05;;;;;10.70;96351.00;;;;8382977;28;20215;-73
2023/04/10 19:41:52;;;;;;;16.67;7.53;;;;;10.60;96344.00;;;;8389292;28;20223;-70
2023/04/10 19:45:58;;;;;;;28.30;10.40;;;;;10.60;96345.00;;;;8384319;28;20207;-73
2023/04/10 19:50:03;;;;;;;17.40;7.88;;;;;10.60;96353.00;;;;8385607;28;20255;-70
2023/04/10 19:54:06;;;;;;;10.73;6.07;;;;;10.60;96355.00;;;;8391107;28;20584;-69
2023/04/10 19:58:09;;;;;;;9.43;5.50;;;;;10.50;96343.00;;;;8391034;28;20195;-72
2023/04/10 20:02:27;;;;;;;10.80;6.28;;;;;10.40;96344.00;;;;8389839;28;20229;-70
2023/04/10 20:06:34;;;;;;;9.07;5.63;;;;;10.40;96352.00;;;;8364883;28;20200;-70
2023/04/10 20:10:39;;;;;;;9.30;5.95;;;;;10.30;96353.00;;;;8386757;28;20215;-70
2023/04/10 20:14:45;;;;;;;10.23;6.50;;;;;10.20;96352.00;;;;8380368;28;20236;-70
2023/04/10 20:18:52;;;;;;;10.63;6.70;;;;;10.10;96354.00;;;;8386487;28;20237;-70